RoSS Salvaggio — WDC2805 — position and weather

sailwx.info

Track history (hours):
 
Tides and Currents Weather Stations Pressure Air Temp Water Temp Dewpoint Dewpoint Depression Visibility Wind Speed Wind Dir Waves Ship Positions

RoSS Salvaggio

Owner: Marquette Transportation Company Gulf-Inland, LLC, Jefferson, LA. More information available from US FCC via Universal Licensing System and Coast Guard Vessel Documentation Center.

Last reported at 2017-Nov-14 00:11 UTC. Time now 2017-Nov-23 05:22 UTC.
Position N 29°31' W 094°53'.
Warning: this ship's position is 9 days out of date.

Length 22 m.

Type: . MMSI: 366997940.

Date/timePositionNaut miles runAvg speedWind from/ knotsBaromVisibWave heightAir tempDewpointWater temp
2017-Nov-14 00:11N 29°31' W 094°53'1 6.4
2017-Nov-14 00:00N 29°32' W 094°54'3 6.4
2017-Nov-13 23:30N 29°35' W 094°56'3 6.3
2017-Nov-13 23:01N 29°37' W 094°58'3 5.5
2017-Nov-13 22:30N 29°40' W 094°59'3 5.6
2017-Nov-13 21:57N 29°42' W 095°01'5 0.1
2017-Nov-12 09:56N 29°45' W 095°06'1 2.1
2017-Nov-12 09:30N 29°46' W 095°05'2 3.0
2017-Nov-12 08:57N 29°47' W 095°04'0 0.0
2017-Nov-12 05:16N 29°47' W 095°04'0 0.1
2017-Nov-12 03:36N 29°47' W 095°04'0 0.0
2017-Nov-10 22:08N 29°47' W 095°04'4 1.6
2017-Nov-10 19:39N 29°44' W 095°02'1 4.8
2017-Nov-10 19:21N 29°42' W 095°01'2 4.9
2017-Nov-10 19:00N 29°42' W 094°59'3 5.3
2017-Nov-10 18:27N 29°39' W 094°58'2 5.7
2017-Nov-10 18:00N 29°36' W 094°57'3 5.7
2017-Nov-10 17:30N 29°34' W 094°55'3 5.7
2017-Nov-10 17:00N 29°32' W 094°54'  
2017-Nov-07 14:02N 29°31' W 094°53'0 7.2
2017-Nov-07 13:58N 29°31' W 094°53'3 6.8
2017-Nov-07 13:30N 29°34' W 094°55'3 6.7
2017-Nov-07 13:00N 29°37' W 094°57'3 6.7
2017-Nov-07 12:30N 29°40' W 094°59'3 6.2
2017-Nov-07 11:59N 29°42' W 095°01'6 1.6
2017-Nov-07 08:26N 29°47' W 095°04'2 4.2
2017-Nov-07 07:59N 29°45' W 095°04'3 4.7
2017-Nov-07 07:27N 29°44' W 095°02'0 0.6
2017-Nov-07 06:51N 29°44' W 095°01'2 2.5
2017-Nov-07 06:08N 29°44' W 095°03'2 0.8
2017-Nov-07 03:06N 29°45' W 095°06'4 1.5
2017-Nov-07 00:22N 29°44' W 095°01'1 1.1
2017-Nov-06 23:06N 29°44' W 095°03'0 1.1
2017-Nov-06 23:00N 29°44' W 095°03'3 2.5
2017-Nov-06 21:55N 29°45' W 095°06'5 0.2
2017-Nov-05 23:54N 29°45' W 095°12'0 0.0
2017-Nov-05 23:27N 29°45' W 095°12'0 0.0
2017-Nov-05 22:59N 29°45' W 095°12'0 0.0
2017-Nov-05 22:26N 29°45' W 095°12'0 0.0
2017-Nov-05 22:00N 29°45' W 095°12'0 0.0
2017-Nov-05 21:29N 29°45' W 095°12'0 0.0
2017-Nov-05 20:59N 29°45' W 095°12'0 0.0
2017-Nov-05 20:21N 29°45' W 095°12'0 0.0
2017-Nov-05 19:54N 29°45' W 095°12'0 0.0
2017-Nov-05 19:31N 29°45' W 095°12'0 0.0
2017-Nov-05 19:01N 29°45' W 095°12'0 0.0
2017-Nov-05 18:30N 29°45' W 095°12'0 0.0
2017-Nov-05 18:01N 29°45' W 095°12'0 0.0
2017-Nov-05 17:31N 29°45' W 095°12'0 0.0
2017-Nov-05 17:00N 29°45' W 095°12'0 0.0
2017-Nov-05 16:30N 29°45' W 095°12'0 0.0
2017-Nov-05 15:42N 29°45' W 095°12'0 0.0
2017-Nov-05 15:28N 29°45' W 095°12'0 0.0
2017-Nov-05 15:01N 29°45' W 095°12'0 0.0
2017-Nov-05 14:29N 29°45' W 095°12'0 0.0
2017-Nov-05 13:19N 29°45' W 095°12'0 0.0
2017-Nov-05 13:00N 29°45' W 095°12'0 0.0
2017-Nov-05 12:20N 29°45' W 095°12'0 0.0
2017-Nov-05 11:53N 29°45' W 095°12'0 0.3
2017-Nov-05 11:28N 29°45' W 095°12'0 0.1
2017-Nov-05 11:01N 29°45' W 095°12'2 4.1
2017-Nov-05 10:30N 29°44' W 095°09'2 4.3
2017-Nov-05 09:58N 29°44' W 095°07'6 1.2
2017-Nov-05 04:59N 29°44' W 095°13'1 0.3
2017-Nov-05 02:52N 29°43' W 095°14'5 3.6
2017-Nov-05 01:34N 29°44' W 095°09'2 3.5
2017-Nov-05 01:08N 29°44' W 095°07'1 3.8
2017-Nov-05 00:56N 29°45' W 095°06'2 0.1
2017-Nov-04 08:25N 29°44' W 095°09'3 4.0
2017-Nov-04 07:46N 29°45' W 095°12'0 0.0
2017-Nov-04 07:30N 29°45' W 095°12'0 0.9
2017-Nov-04 07:00N 29°45' W 095°11'1 2.2
2017-Nov-04 06:28N 29°45' W 095°10'3 4.3
2017-Nov-04 05:50N 29°44' W 095°07'2 4.5
2017-Nov-04 05:25N 29°46' W 095°05'0 0.1
2017-Nov-04 02:19N 29°45' W 095°06'  
Track history (hours):
 
Tides and Currents Weather Stations Pressure Air Temp Water Temp Dewpoint Dewpoint Depression Visibility Wind Speed Wind Dir Waves Ship Positions

RoSS Salvaggio

Owner: Marquette Transportation Company Gulf-Inland, LLC, Jefferson, LA. More information available from US FCC via Universal Licensing System and Coast Guard Vessel Documentation Center.

Last reported at 2017-Nov-14 00:11 UTC. Time now 2017-Nov-23 05:22 UTC.
Position N 29°31' W 094°53'.
Warning: this ship's position is 9 days out of date.

Length 22 m.

Type: . MMSI: 366997940.

Date/timePositionNaut miles runAvg speedWind from/ knotsBaromVisibWave heightAir tempDewpointWater temp
2017-Nov-14 00:11N 29°31' W 094°53'1 6.4
2017-Nov-14 00:00N 29°32' W 094°54'3 6.4
2017-Nov-13 23:30N 29°35' W 094°56'3 6.3
2017-Nov-13 23:01N 29°37' W 094°58'3 5.5
2017-Nov-13 22:30N 29°40' W 094°59'3 5.6
2017-Nov-13 21:57N 29°42' W 095°01'5 0.1
2017-Nov-12 09:56N 29°45' W 095°06'1 2.1
2017-Nov-12 09:30N 29°46' W 095°05'2 3.0
2017-Nov-12 08:57N 29°47' W 095°04'0 0.0
2017-Nov-12 05:16N 29°47' W 095°04'0 0.1
2017-Nov-12 03:36N 29°47' W 095°04'0 0.0
2017-Nov-10 22:08N 29°47' W 095°04'4 1.6
2017-Nov-10 19:39N 29°44' W 095°02'1 4.8
2017-Nov-10 19:21N 29°42' W 095°01'2 4.9
2017-Nov-10 19:00N 29°42' W 094°59'3 5.3
2017-Nov-10 18:27N 29°39' W 094°58'2 5.7
2017-Nov-10 18:00N 29°36' W 094°57'3 5.7
2017-Nov-10 17:30N 29°34' W 094°55'3 5.7
2017-Nov-10 17:00N 29°32' W 094°54'  
2017-Nov-07 14:02N 29°31' W 094°53'0 7.2
2017-Nov-07 13:58N 29°31' W 094°53'3 6.8
2017-Nov-07 13:30N 29°34' W 094°55'3 6.7
2017-Nov-07 13:00N 29°37' W 094°57'3 6.7
2017-Nov-07 12:30N 29°40' W 094°59'3 6.2
2017-Nov-07 11:59N 29°42' W 095°01'6 1.6
2017-Nov-07 08:26N 29°47' W 095°04'2 4.2
2017-Nov-07 07:59N 29°45' W 095°04'3 4.7
2017-Nov-07 07:27N 29°44' W 095°02'0 0.6
2017-Nov-07 06:51N 29°44' W 095°01'2 2.5
2017-Nov-07 06:08N 29°44' W 095°03'2 0.8
2017-Nov-07 03:06N 29°45' W 095°06'4 1.5
2017-Nov-07 00:22N 29°44' W 095°01'1 1.1
2017-Nov-06 23:06N 29°44' W 095°03'0 1.1
2017-Nov-06 23:00N 29°44' W 095°03'3 2.5
2017-Nov-06 21:55N 29°45' W 095°06'5 0.2
2017-Nov-05 23:54N 29°45' W 095°12'0 0.0
2017-Nov-05 23:27N 29°45' W 095°12'0 0.0
2017-Nov-05 22:59N 29°45' W 095°12'0 0.0
2017-Nov-05 22:26N 29°45' W 095°12'0 0.0
2017-Nov-05 22:00N 29°45' W 095°12'0 0.0
2017-Nov-05 21:29N 29°45' W 095°12'0 0.0
2017-Nov-05 20:59N 29°45' W 095°12'0 0.0
2017-Nov-05 20:21N 29°45' W 095°12'0 0.0
2017-Nov-05 19:54N 29°45' W 095°12'0 0.0
2017-Nov-05 19:31N 29°45' W 095°12'0 0.0
2017-Nov-05 19:01N 29°45' W 095°12'0 0.0
2017-Nov-05 18:30N 29°45' W 095°12'0 0.0
2017-Nov-05 18:01N 29°45' W 095°12'0 0.0
2017-Nov-05 17:31N 29°45' W 095°12'0 0.0
2017-Nov-05 17:00N 29°45' W 095°12'0 0.0
2017-Nov-05 16:30N 29°45' W 095°12'0 0.0
2017-Nov-05 15:42N 29°45' W 095°12'0 0.0
2017-Nov-05 15:28N 29°45' W 095°12'0 0.0
2017-Nov-05 15:01N 29°45' W 095°12'0 0.0
2017-Nov-05 14:29N 29°45' W 095°12'0 0.0
2017-Nov-05 13:19N 29°45' W 095°12'0 0.0
2017-Nov-05 13:00N 29°45' W 095°12'0 0.0
2017-Nov-05 12:20N 29°45' W 095°12'0 0.0
2017-Nov-05 11:53N 29°45' W 095°12'0 0.3
2017-Nov-05 11:28N 29°45' W 095°12'0 0.1
2017-Nov-05 11:01N 29°45' W 095°12'2 4.1
2017-Nov-05 10:30N 29°44' W 095°09'2 4.3
2017-Nov-05 09:58N 29°44' W 095°07'6 1.2
2017-Nov-05 04:59N 29°44' W 095°13'1 0.3
2017-Nov-05 02:52N 29°43' W 095°14'5 3.6
2017-Nov-05 01:34N 29°44' W 095°09'2 3.5
2017-Nov-05 01:08N 29°44' W 095°07'1 3.8
2017-Nov-05 00:56N 29°45' W 095°06'2 0.1
2017-Nov-04 08:25N 29°44' W 095°09'3 4.0
2017-Nov-04 07:46N 29°45' W 095°12'0 0.0
2017-Nov-04 07:30N 29°45' W 095°12'0 0.9
2017-Nov-04 07:00N 29°45' W 095°11'1 2.2
2017-Nov-04 06:28N 29°45' W 095°10'3 4.3
2017-Nov-04 05:50N 29°44' W 095°07'2 4.5
2017-Nov-04 05:25N 29°46' W 095°05'0 0.1
2017-Nov-04 02:19N 29°45' W 095°06'  

Dump ship's entire track history